sensor_id;sensor_type;location;lat;lon;timestamp;pressure;altitude;pressure_sealevel;temperature;humidity
25430;BME280;13360;48.152;-1.788;2022-09-03T00:02:05;102740.72;;;22.26;100.00
25430;BME280;13360;48.152;-1.788;2022-09-03T00:07:14;102777.34;;;22.35;100.00
25430;BME280;13360;48.152;-1.788;2022-09-03T00:09:46;102778.00;;;22.32;100.00
25430;BME280;13360;48.152;-1.788;2022-09-03T00:12:18;102789.75;;;22.34;100.00
25430;BME280;13360;48.152;-1.788;2022-09-03T00:14:50;102801.69;;;22.31;100.00
25430;BME280;13360;48.152;-1.788;2022-09-03T00:17:21;102785.28;;;22.33;100.00
25430;BME280;13360;48.152;-1.788;2022-09-03T00:19:55;102792.56;;;22.34;100.00
25430;BME280;13360;48.152;-1.788;2022-09-03T00:22:26;102805.31;;;22.31;100.00
25430;BME280;13360;48.152;-1.788;2022-09-03T00:24:55;102801.50;;;22.36;100.00
25430;BME280;13360;48.152;-1.788;2022-09-03T00:27:25;102781.16;;;22.30;100.00
25430;BME280;13360;48.152;-1.788;2022-09-03T00:32:39;102807.47;;;22.34;100.00
25430;BME280;13360;48.152;-1.788;2022-09-03T00:35:15;102762.06;;;22.27;100.00
25430;BME280;13360;48.152;-1.788;2022-09-03T00:37:42;102767.19;;;22.16;100.00
25430;BME280;13360;48.152;-1.788;2022-09-03T00:43:26;102761.81;;;22.72;100.00
25430;BME280;13360;48.152;-1.788;2022-09-03T00:48:48;102704.81;;;22.40;100.00
25430;BME280;13360;48.152;-1.788;2022-09-03T00:51:31;102663.91;;;22.51;100.00
25430;BME280;13360;48.152;-1.788;2022-09-03T00:54:10;102611.03;;;22.48;100.00
25430;BME280;13360;48.152;-1.788;2022-09-03T01:02:46;102544.69;;;22.21;100.00
25430;BME280;13360;48.152;-1.788;2022-09-03T01:14:33;102531.94;;;22.24;100.00
25430;BME280;13360;48.152;-1.788;2022-09-03T01:17:07;102517.84;;;22.24;100.00
25430;BME280;13360;48.152;-1.788;2022-09-03T01:19:46;102512.91;;;22.21;100.00
25430;BME280;13360;48.152;-1.788;2022-09-03T01:25:04;102508.75;;;22.18;100.00
25430;BME280;13360;48.152;-1.788;2022-09-03T01:27:40;102515.06;;;22.15;100.00
25430;BME280;13360;48.152;-1.788;2022-09-03T01:30:13;102541.38;;;22.19;100.00
25430;BME280;13360;48.152;-1.788;2022-09-03T01:33:06;102530.44;;;22.18;100.00
25430;BME280;13360;48.152;-1.788;2022-09-03T01:35:59;102551.13;;;22.22;100.00
25430;BME280;13360;48.152;-1.788;2022-09-03T01:38:51;102557.44;;;22.19;100.00
25430;BME280;13360;48.152;-1.788;2022-09-03T01:47:30;102581.91;;;22.27;100.00
25430;BME280;13360;48.152;-1.788;2022-09-03T01:50:05;102577.78;;;22.33;100.00
25430;BME280;13360;48.152;-1.788;2022-09-03T02:01:10;102554.63;;;22.19;100.00
25430;BME280;13360;48.152;-1.788;2022-09-03T02:03:41;102584.91;;;22.22;100.00
25430;BME280;13360;48.152;-1.788;2022-09-03T02:06:10;102577.78;;;22.25;100.00
25430;BME280;13360;48.152;-1.788;2022-09-03T02:08:36;102544.19;;;22.28;100.00
25430;BME280;13360;48.152;-1.788;2022-09-03T02:11:05;102497.69;;;22.13;100.00
25430;BME280;13360;48.152;-1.788;2022-09-03T02:13:38;102493.53;;;22.19;100.00
25430;BME280;13360;48.152;-1.788;2022-09-03T02:16:10;102470.19;;;22.19;100.00
25430;BME280;13360;48.152;-1.788;2022-09-03T02:18:47;102469.84;;;22.03;100.00
25430;BME280;13360;48.152;-1.788;2022-09-03T02:21:17;102481.09;;;22.03;100.00
25430;BME280;13360;48.152;-1.788;2022-09-03T02:23:44;102488.06;;;22.06;100.00
25430;BME280;13360;48.152;-1.788;2022-09-03T02:26:12;102487.78;;;22.07;100.00
25430;BME280;13360;48.152;-1.788;2022-09-03T02:28:38;102502.16;;;22.06;100.00
25430;BME280;13360;48.152;-1.788;2022-09-03T02:31:04;102484.59;;;21.91;100.00
25430;BME280;13360;48.152;-1.788;2022-09-03T02:33:38;102534.25;;;21.96;100.00
25430;BME280;13360;48.152;-1.788;2022-09-03T02:36:07;102569.16;;;21.95;100.00
25430;BME280;13360;48.152;-1.788;2022-09-03T02:38:32;102599.28;;;21.95;100.00
25430;BME280;13360;48.152;-1.788;2022-09-03T02:40:58;102620.47;;;22.01;100.00
25430;BME280;13360;48.152;-1.788;2022-09-03T02:43:31;102637.00;;;22.02;100.00
25430;BME280;13360;48.152;-1.788;2022-09-03T02:46:03;102638.66;;;21.95;100.00
25430;BME280;13360;48.152;-1.788;2022-09-03T02:48:30;102674.91;;;21.96;100.00
25430;BME280;13360;48.152;-1.788;2022-09-03T02:50:55;102677.97;;;22.08;100.00
25430;BME280;13360;48.152;-1.788;2022-09-03T02:53:21;102658.09;;;22.13;100.00
25430;BME280;13360;48.152;-1.788;2022-09-03T02:55:46;102631.94;;;22.13;100.00
25430;BME280;13360;48.152;-1.788;2022-09-03T02:58:12;102606.59;;;22.04;100.00
25430;BME280;13360;48.152;-1.788;2022-09-03T03:00:37;102605.72;;;21.95;100.00
25430;BME280;13360;48.152;-1.788;2022-09-03T03:03:03;102568.84;;;21.88;100.00
25430;BME280;13360;48.152;-1.788;2022-09-03T03:05:50;102507.09;;;21.91;100.00
25430;BME280;13360;48.152;-1.788;2022-09-03T03:08:16;102503.63;;;21.95;100.00
25430;BME280;13360;48.152;-1.788;2022-09-03T03:10:46;102459.44;;;21.95;100.00
25430;BME280;13360;48.152;-1.788;2022-09-03T03:13:13;102423.53;;;21.92;100.00
25430;BME280;13360;48.152;-1.788;2022-09-03T03:15:39;102411.47;;;21.91;100.00
25430;BME280;13360;48.152;-1.788;2022-09-03T03:18:04;102404.00;;;21.96;100.00
25430;BME280;13360;48.152;-1.788;2022-09-03T03:20:31;102392.78;;;21.87;100.00
25430;BME280;13360;48.152;-1.788;2022-09-03T03:22:57;102416.09;;;21.87;100.00
25430;BME280;13360;48.152;-1.788;2022-09-03T03:25:22;102440.25;;;21.88;100.00
25430;BME280;13360;48.152;-1.788;2022-09-03T03:27:48;102451.19;;;21.90;100.00
25430;BME280;13360;48.152;-1.788;2022-09-03T03:30:13;102460.44;;;21.90;100.00
25430;BME280;13360;48.152;-1.788;2022-09-03T03:32:38;102478.66;;;21.93;100.00
25430;BME280;13360;48.152;-1.788;2022-09-03T03:35:05;102473.34;;;21.83;100.00
25430;BME280;13360;48.152;-1.788;2022-09-03T03:37:31;102496.34;;;21.85;100.00
25430;BME280;13360;48.152;-1.788;2022-09-03T03:39:57;102519.03;;;21.88;100.00
25430;BME280;13360;48.152;-1.788;2022-09-03T03:42:23;102519.66;;;21.85;100.00
25430;BME280;13360;48.152;-1.788;2022-09-03T03:44:48;102513.22;;;21.85;100.00
25430;BME280;13360;48.152;-1.788;2022-09-03T03:47:13;102517.19;;;21.84;100.00
25430;BME280;13360;48.152;-1.788;2022-09-03T03:49:41;102511.06;;;21.82;100.00
25430;BME280;13360;48.152;-1.788;2022-09-03T03:52:07;102523.31;;;21.77;100.00
25430;BME280;13360;48.152;-1.788;2022-09-03T03:54:32;102524.81;;;21.75;100.00
25430;BME280;13360;48.152;-1.788;2022-09-03T03:56:58;102519.00;;;21.71;100.00
25430;BME280;13360;48.152;-1.788;2022-09-03T03:59:23;102524.81;;;21.66;100.00
25430;BME280;13360;48.152;-1.788;2022-09-03T04:01:48;102558.72;;;21.70;100.00
25430;BME280;13360;48.152;-1.788;2022-09-03T04:04:15;102561.69;;;21.73;100.00
25430;BME280;13360;48.152;-1.788;2022-09-03T04:06:40;102573.09;;;21.77;100.00
25430;BME280;13360;48.152;-1.788;2022-09-03T04:09:05;102572.13;;;21.73;100.00
25430;BME280;13360;48.152;-1.788;2022-09-03T04:11:31;102606.69;;;21.73;100.00
25430;BME280;13360;48.152;-1.788;2022-09-03T04:13:56;102621.25;;;21.75;100.00
25430;BME280;13360;48.152;-1.788;2022-09-03T04:16:23;102623.72;;;21.77;100.00
25430;BME280;13360;48.152;-1.788;2022-09-03T04:18:55;102634.16;;;21.76;100.00
25430;BME280;13360;48.152;-1.788;2022-09-03T04:21:22;102640.44;;;21.73;100.00
25430;BME280;13360;48.152;-1.788;2022-09-03T04:23:49;102636.25;;;21.62;100.00
25430;BME280;13360;48.152;-1.788;2022-09-03T04:26:17;102681.47;;;21.83;100.00
25430;BME280;13360;48.152;-1.788;2022-09-03T04:28:43;102623.56;;;21.73;100.00
25430;BME280;13360;48.152;-1.788;2022-09-03T04:31:11;102615.28;;;21.77;100.00
25430;BME280;13360;48.152;-1.788;2022-09-03T04:33:37;102620.44;;;21.75;100.00
25430;BME280;13360;48.152;-1.788;2022-09-03T04:36:06;102643.91;;;21.79;100.00
25430;BME280;13360;48.152;-1.788;2022-09-03T04:38:33;102654.34;;;21.78;100.00
25430;BME280;13360;48.152;-1.788;2022-09-03T04:40:59;102649.72;;;21.74;100.00
25430;BME280;13360;48.152;-1.788;2022-09-03T04:43:27;102662.78;;;21.70;100.00
25430;BME280;13360;48.152;-1.788;2022-09-03T04:46:01;102677.78;;;21.65;100.00
25430;BME280;13360;48.152;-1.788;2022-09-03T04:48:29;102717.88;;;21.79;100.00
25430;BME280;13360;48.152;-1.788;2022-09-03T04:51:13;102678.00;;;21.69;100.00
25430;BME280;13360;48.152;-1.788;2022-09-03T04:53:43;102693.16;;;21.59;100.00
25430;BME280;13360;48.152;-1.788;2022-09-03T04:56:13;102720.44;;;21.58;100.00
25430;BME280;13360;48.152;-1.788;2022-09-03T04:58:40;102739.28;;;21.58;100.00
25430;BME280;13360;48.152;-1.788;2022-09-03T05:01:07;102758.47;;;21.56;100.00
25430;BME280;13360;48.152;-1.788;2022-09-03T05:03:33;102765.25;;;21.55;100.00
25430;BME280;13360;48.152;-1.788;2022-09-03T05:05:58;102786.09;;;21.54;100.00
25430;BME280;13360;48.152;-1.788;2022-09-03T05:08:23;102806.41;;;21.51;100.00
25430;BME280;13360;48.152;-1.788;2022-09-03T05:10:57;102834.22;;;21.52;100.00
25430;BME280;13360;48.152;-1.788;2022-09-03T05:13:24;102832.69;;;21.46;100.00
25430;BME280;13360;48.152;-1.788;2022-09-03T05:15:49;102847.91;;;21.45;100.00
25430;BME280;13360;48.152;-1.788;2022-09-03T05:18:15;102873.63;;;21.61;100.00
25430;BME280;13360;48.152;-1.788;2022-09-03T05:20:40;102875.50;;;21.66;100.00
25430;BME280;13360;48.152;-1.788;2022-09-03T05:23:05;102852.47;;;21.64;100.00
25430;BME280;13360;48.152;-1.788;2022-09-03T05:25:32;102836.25;;;21.60;100.00
25430;BME280;13360;48.152;-1.788;2022-09-03T05:27:58;102837.06;;;21.61;100.00
25430;BME280;13360;48.152;-1.788;2022-09-03T05:30:23;102822.19;;;21.60;100.00
25430;BME280;13360;48.152;-1.788;2022-09-03T05:32:50;102767.31;;;21.41;100.00
25430;BME280;13360;48.152;-1.788;2022-09-03T05:35:16;102788.59;;;21.33;100.00
25430;BME280;13360;48.152;-1.788;2022-09-03T05:37:41;102838.69;;;21.31;100.00
25430;BME280;13360;48.152;-1.788;2022-09-03T05:40:07;102898.28;;;21.42;100.00
25430;BME280;13360;48.152;-1.788;2022-09-03T05:42:36;102875.88;;;21.28;100.00
25430;BME280;13360;48.152;-1.788;2022-09-03T05:45:07;102916.44;;;21.36;100.00
25430;BME280;13360;48.152;-1.788;2022-09-03T05:47:37;102939.25;;;21.34;100.00
25430;BME280;13360;48.152;-1.788;2022-09-03T05:50:07;102926.66;;;21.18;100.00
25430;BME280;13360;48.152;-1.788;2022-09-03T05:52:34;102961.53;;;21.17;100.00
25430;BME280;13360;48.152;-1.788;2022-09-03T05:55:00;102970.59;;;21.00;100.00
25430;BME280;13360;48.152;-1.788;2022-09-03T05:57:25;102986.44;;;20.96;100.00
25430;BME280;13360;48.152;-1.788;2022-09-03T05:59:51;103026.91;;;20.95;100.00
25430;BME280;13360;48.152;-1.788;2022-09-03T06:02:17;103060.13;;;21.07;100.00
25430;BME280;13360;48.152;-1.788;2022-09-03T06:04:43;103027.84;;;21.04;100.00
25430;BME280;13360;48.152;-1.788;2022-09-03T06:07:08;103037.50;;;21.12;100.00
25430;BME280;13360;48.152;-1.788;2022-09-03T06:09:34;103023.47;;;21.12;100.00
25430;BME280;13360;48.152;-1.788;2022-09-03T06:11:59;103003.91;;;20.93;100.00
25430;BME280;13360;48.152;-1.788;2022-09-03T06:14:25;103045.75;;;20.94;100.00
25430;BME280;13360;48.152;-1.788;2022-09-03T06:16:50;103056.78;;;20.91;100.00
25430;BME280;13360;48.152;-1.788;2022-09-03T06:19:17;103082.56;;;20.93;100.00
25430;BME280;13360;48.152;-1.788;2022-09-03T06:21:43;103101.84;;;21.13;100.00
25430;BME280;13360;48.152;-1.788;2022-09-03T06:24:11;103089.97;;;21.16;100.00
25430;BME280;13360;48.152;-1.788;2022-09-03T06:26:37;103070.28;;;21.16;100.00
25430;BME280;13360;48.152;-1.788;2022-09-03T06:29:03;103039.09;;;21.04;100.00
25430;BME280;13360;48.152;-1.788;2022-09-03T06:31:28;103071.16;;;21.03;100.00
25430;BME280;13360;48.152;-1.788;2022-09-03T06:33:54;103095.38;;;20.99;100.00
25430;BME280;13360;48.152;-1.788;2022-09-03T06:36:22;103110.03;;;20.96;100.00
25430;BME280;13360;48.152;-1.788;2022-09-03T06:38:50;103121.28;;;20.96;100.00
25430;BME280;13360;48.152;-1.788;2022-09-03T06:41:19;103135.00;;;20.97;100.00
25430;BME280;13360;48.152;-1.788;2022-09-03T06:44:02;103140.94;;;20.96;100.00
25430;BME280;13360;48.152;-1.788;2022-09-03T06:46:30;103144.78;;;21.00;100.00
25430;BME280;13360;48.152;-1.788;2022-09-03T06:48:56;103146.56;;;20.96;100.00
25430;BME280;13360;48.152;-1.788;2022-09-03T06:51:24;103185.31;;;21.13;100.00
25430;BME280;13360;48.152;-1.788;2022-09-03T06:53:52;103159.56;;;21.24;100.00
25430;BME280;13360;48.152;-1.788;2022-09-03T06:56:23;103131.19;;;21.21;100.00
25430;BME280;13360;48.152;-1.788;2022-09-03T06:58:58;103100.91;;;21.18;100.00
25430;BME280;13360;48.152;-1.788;2022-09-03T07:01:29;103122.03;;;21.15;100.00
25430;BME280;13360;48.152;-1.788;2022-09-03T07:03:56;103141.69;;;21.15;100.00
25430;BME280;13360;48.152;-1.788;2022-09-03T07:06:29;103171.00;;;21.28;100.00
25430;BME280;13360;48.152;-1.788;2022-09-03T07:08:55;103143.78;;;21.23;100.00
25430;BME280;13360;48.152;-1.788;2022-09-03T07:11:24;103156.63;;;21.29;100.00
25430;BME280;13360;48.152;-1.788;2022-09-03T07:13:52;103151.94;;;21.25;100.00
25430;BME280;13360;48.152;-1.788;2022-09-03T07:16:29;103126.06;;;21.23;100.00
25430;BME280;13360;48.152;-1.788;2022-09-03T07:18:55;103106.19;;;21.19;100.00
25430;BME280;13360;48.152;-1.788;2022-09-03T07:21:23;103102.25;;;21.20;100.00
25430;BME280;13360;48.152;-1.788;2022-09-03T07:23:51;103107.19;;;21.28;100.00
25430;BME280;13360;48.152;-1.788;2022-09-03T07:26:28;103133.41;;;21.38;100.00
25430;BME280;13360;48.152;-1.788;2022-09-03T07:28:54;103109.06;;;21.33;100.00
25430;BME280;13360;48.152;-1.788;2022-09-03T07:31:25;103109.56;;;21.35;100.00
25430;BME280;13360;48.152;-1.788;2022-09-03T07:34:02;103088.53;;;21.33;100.00
25430;BME280;13360;48.152;-1.788;2022-09-03T07:36:34;103077.94;;;21.29;100.00
25430;BME280;13360;48.152;-1.788;2022-09-03T07:38:59;103054.19;;;21.36;100.00
25430;BME280;13360;48.152;-1.788;2022-09-03T07:41:25;103051.16;;;21.46;100.00
25430;BME280;13360;48.152;-1.788;2022-09-03T07:43:52;103053.72;;;21.56;100.00
25430;BME280;13360;48.152;-1.788;2022-09-03T07:46:19;103042.75;;;21.68;100.00
25430;BME280;13360;48.152;-1.788;2022-09-03T07:48:51;102983.44;;;21.56;100.00
25430;BME280;13360;48.152;-1.788;2022-09-03T07:51:22;102923.28;;;21.43;100.00
25430;BME280;13360;48.152;-1.788;2022-09-03T07:53:52;102901.59;;;21.44;100.00
25430;BME280;13360;48.152;-1.788;2022-09-03T07:56:18;102864.31;;;21.52;100.00
25430;BME280;13360;48.152;-1.788;2022-09-03T07:58:43;102843.09;;;21.46;100.00
25430;BME280;13360;48.152;-1.788;2022-09-03T08:01:15;102830.72;;;21.47;100.00
25430;BME280;13360;48.152;-1.788;2022-09-03T08:03:45;102833.88;;;21.54;100.00
25430;BME280;13360;48.152;-1.788;2022-09-03T08:06:12;102835.41;;;21.60;100.00
25430;BME280;13360;48.152;-1.788;2022-09-03T08:08:38;102804.28;;;21.56;100.00
25430;BME280;13360;48.152;-1.788;2022-09-03T08:13:34;102763.13;;;21.60;100.00
25430;BME280;13360;48.152;-1.788;2022-09-03T08:15:59;102784.56;;;21.79;100.00
25430;BME280;13360;48.152;-1.788;2022-09-03T08:18:26;102770.41;;;21.92;100.00
25430;BME280;13360;48.152;-1.788;2022-09-03T08:20:58;102746.41;;;22.04;100.00
25430;BME280;13360;48.152;-1.788;2022-09-03T08:23:23;102720.66;;;22.10;100.00
25430;BME280;13360;48.152;-1.788;2022-09-03T08:25:57;102659.75;;;22.14;100.00
25430;BME280;13360;48.152;-1.788;2022-09-03T08:28:22;102636.06;;;22.15;100.00
25430;BME280;13360;48.152;-1.788;2022-09-03T08:30:47;102621.00;;;22.20;100.00
25430;BME280;13360;48.152;-1.788;2022-09-03T08:33:13;102586.75;;;22.09;100.00
25430;BME280;13360;48.152;-1.788;2022-09-03T08:35:39;102538.19;;;22.04;100.00
25430;BME280;13360;48.152;-1.788;2022-09-03T08:38:04;102519.66;;;22.03;100.00
25430;BME280;13360;48.152;-1.788;2022-09-03T08:40:32;102530.97;;;22.11;100.00
25430;BME280;13360;48.152;-1.788;2022-09-03T08:43:14;102492.22;;;22.17;100.00
25430;BME280;13360;48.152;-1.788;2022-09-03T08:45:43;102464.94;;;22.09;100.00
25430;BME280;13360;48.152;-1.788;2022-09-03T08:48:15;102452.78;;;22.26;100.00
25430;BME280;13360;48.152;-1.788;2022-09-03T08:50:48;102426.31;;;22.18;100.00
25430;BME280;13360;48.152;-1.788;2022-09-03T08:53:21;102436.41;;;22.19;100.00
25430;BME280;13360;48.152;-1.788;2022-09-03T08:55:52;102430.97;;;22.14;100.00
25430;BME280;13360;48.152;-1.788;2022-09-03T08:58:25;102406.31;;;22.11;100.00
25430;BME280;13360;48.152;-1.788;2022-09-03T09:04:04;102472.78;;;22.50;100.00
25430;BME280;13360;48.152;-1.788;2022-09-03T09:06:57;102462.19;;;22.85;100.00
25430;BME280;13360;48.152;-1.788;2022-09-03T09:15:12;102432.75;;;23.33;100.00
25430;BME280;13360;48.152;-1.788;2022-09-03T09:18:05;102374.03;;;23.35;100.00
25430;BME280;13360;48.152;-1.788;2022-09-03T09:23:05;102261.38;;;23.84;100.00
25430;BME280;13360;48.152;-1.788;2022-09-03T09:25:32;102194.38;;;23.81;100.00
25430;BME280;13360;48.152;-1.788;2022-09-03T09:28:24;102208.72;;;24.37;100.00
25430;BME280;13360;48.152;-1.788;2022-09-03T09:30:55;102190.34;;;24.43;100.00
25430;BME280;13360;48.152;-1.788;2022-09-03T09:33:21;102175.06;;;24.44;100.00
25430;BME280;13360;48.152;-1.788;2022-09-03T09:35:48;102069.13;;;24.10;100.00
25430;BME280;13360;48.152;-1.788;2022-09-03T09:38:14;102076.19;;;24.03;100.00
25430;BME280;13360;48.152;-1.788;2022-09-03T09:40:41;102048.94;;;23.95;100.00
25430;BME280;13360;48.152;-1.788;2022-09-03T09:45:35;102061.78;;;24.33;100.00
25430;BME280;13360;48.152;-1.788;2022-09-03T09:48:08;102066.47;;;24.41;100.00
25430;BME280;13360;48.152;-1.788;2022-09-03T09:50:35;102063.66;;;24.57;100.00
25430;BME280;13360;48.152;-1.788;2022-09-03T09:53:02;102030.50;;;24.54;100.00
25430;BME280;13360;48.152;-1.788;2022-09-03T09:55:29;102006.91;;;24.46;100.00
25430;BME280;13360;48.152;-1.788;2022-09-03T09:58:05;102034.03;;;24.94;100.00
25430;BME280;13360;48.152;-1.788;2022-09-03T10:00:33;101938.16;;;25.02;100.00
25430;BME280;13360;48.152;-1.788;2022-09-03T10:03:06;101912.50;;;24.94;100.00
25430;BME280;13360;48.152;-1.788;2022-09-03T10:05:35;101855.78;;;24.37;100.00
25430;BME280;13360;48.152;-1.788;2022-09-03T10:08:06;101858.47;;;24.17;100.00
25430;BME280;13360;48.152;-1.788;2022-09-03T10:10:42;101975.94;;;24.22;100.00
25430;BME280;13360;48.152;-1.788;2022-09-03T10:13:14;101884.19;;;23.72;100.00
25430;BME280;13360;48.152;-1.788;2022-09-03T10:23:14;102012.31;;;23.71;100.00
25430;BME280;13360;48.152;-1.788;2022-09-03T10:26:09;102086.94;;;23.86;100.00
25430;BME280;13360;48.152;-1.788;2022-09-03T10:28:40;101929.28;;;23.84;100.00
25430;BME280;13360;48.152;-1.788;2022-09-03T10:36:32;101926.72;;;24.07;100.00
25430;BME280;13360;48.152;-1.788;2022-09-03T10:39:12;101826.94;;;23.99;100.00
25430;BME280;13360;48.152;-1.788;2022-09-03T10:47:18;101856.88;;;23.88;100.00
25430;BME280;13360;48.152;-1.788;2022-09-03T10:49:59;101795.84;;;23.68;100.00
25430;BME280;13360;48.152;-1.788;2022-09-03T11:01:02;101736.38;;;23.45;100.00
25430;BME280;13360;48.152;-1.788;2022-09-03T11:03:47;101784.03;;;23.50;100.00
25430;BME280;13360;48.152;-1.788;2022-09-03T11:06:27;101649.59;;;23.23;100.00
25430;BME280;13360;48.152;-1.788;2022-09-03T11:08:57;101623.34;;;23.34;100.00
25430;BME280;13360;48.152;-1.788;2022-09-03T11:11:34;101573.59;;;23.26;100.00
25430;BME280;13360;48.152;-1.788;2022-09-03T11:14:07;101668.81;;;23.49;100.00
25430;BME280;13360;48.152;-1.788;2022-09-03T11:16:38;101578.59;;;23.49;100.00
25430;BME280;13360;48.152;-1.788;2022-09-03T11:19:11;101589.13;;;23.52;100.00
25430;BME280;13360;48.152;-1.788;2022-09-03T11:21:38;101584.88;;;23.42;100.00
25430;BME280;13360;48.152;-1.788;2022-09-03T11:24:12;101533.03;;;23.31;100.00
25430;BME280;13360;48.152;-1.788;2022-09-03T11:26:43;101599.59;;;23.51;100.00
25430;BME280;13360;48.152;-1.788;2022-09-03T11:29:18;101566.69;;;23.55;100.00
25430;BME280;13360;48.152;-1.788;2022-09-03T11:32:03;101533.56;;;23.52;100.00
25430;BME280;13360;48.152;-1.788;2022-09-03T11:34:47;101457.50;;;23.36;100.00
25430;BME280;13360;48.152;-1.788;2022-09-03T11:37:17;101456.03;;;23.42;100.00
25430;BME280;13360;48.152;-1.788;2022-09-03T11:39:44;101525.47;;;23.51;100.00
25430;BME280;13360;48.152;-1.788;2022-09-03T11:42:34;101507.28;;;23.48;100.00
25430;BME280;13360;48.152;-1.788;2022-09-03T11:45:39;101418.84;;;23.37;100.00
25430;BME280;13360;48.152;-1.788;2022-09-03T11:48:44;101357.53;;;23.15;100.00
25430;BME280;13360;48.152;-1.788;2022-09-03T11:53:59;101368.13;;;23.37;100.00
25430;BME280;13360;48.152;-1.788;2022-09-03T11:56:27;101340.31;;;23.55;100.00
25430;BME280;13360;48.152;-1.788;2022-09-03T11:59:18;101371.69;;;23.53;100.00
25430;BME280;13360;48.152;-1.788;2022-09-03T12:04:16;101310.66;;;23.61;100.00
25430;BME280;13360;48.152;-1.788;2022-09-03T12:12:37;101227.75;;;23.65;100.00
25430;BME280;13360;48.152;-1.788;2022-09-03T12:17:55;101196.63;;;23.58;100.00
25430;BME280;13360;48.152;-1.788;2022-09-03T12:21:09;101174.19;;;23.65;100.00
25430;BME280;13360;48.152;-1.788;2022-09-03T12:26:11;101160.53;;;23.67;100.00
25430;BME280;13360;48.152;-1.788;2022-09-03T12:28:40;101112.09;;;23.62;100.00
25430;BME280;13360;48.152;-1.788;2022-09-03T12:31:14;101094.69;;;23.56;100.00
25430;BME280;13360;48.152;-1.788;2022-09-03T12:33:52;101111.44;;;23.49;100.00
25430;BME280;13360;48.152;-1.788;2022-09-03T12:36:22;101084.44;;;23.48;100.00
25430;BME280;13360;48.152;-1.788;2022-09-03T12:38:48;101076.25;;;23.39;100.00
25430;BME280;13360;48.152;-1.788;2022-09-03T12:41:27;101066.97;;;23.39;100.00
25430;BME280;13360;48.152;-1.788;2022-09-03T12:43:57;101100.59;;;23.51;100.00
25430;BME280;13360;48.152;-1.788;2022-09-03T12:46:32;101038.41;;;23.40;100.00
25430;BME280;13360;48.152;-1.788;2022-09-03T12:49:03;101024.03;;;23.49;100.00
25430;BME280;13360;48.152;-1.788;2022-09-03T12:51:40;101046.75;;;23.56;100.00
25430;BME280;13360;48.152;-1.788;2022-09-03T12:54:09;101029.53;;;23.61;100.00
25430;BME280;13360;48.152;-1.788;2022-09-03T12:56:42;100983.09;;;23.55;100.00
25430;BME280;13360;48.152;-1.788;2022-09-03T12:59:13;100977.53;;;23.59;100.00
25430;BME280;13360;48.152;-1.788;2022-09-03T13:01:48;100966.19;;;23.55;100.00
25430;BME280;13360;48.152;-1.788;2022-09-03T13:04:18;100959.97;;;23.46;100.00
25430;BME280;13360;48.152;-1.788;2022-09-03T13:07:10;100948.28;;;23.44;100.00
25430;BME280;13360;48.152;-1.788;2022-09-03T13:09:38;100951.94;;;23.48;100.00
25430;BME280;13360;48.152;-1.788;2022-09-03T13:12:05;100994.22;;;23.48;100.00
25430;BME280;13360;48.152;-1.788;2022-09-03T13:14:46;101053.13;;;23.53;100.00
25430;BME280;13360;48.152;-1.788;2022-09-03T13:25:56;100993.94;;;23.53;100.00
25430;BME280;13360;48.152;-1.788;2022-09-03T13:28:30;100961.81;;;23.58;100.00
25430;BME280;13360;48.152;-1.788;2022-09-03T13:33:40;100927.16;;;23.57;100.00
25430;BME280;13360;48.152;-1.788;2022-09-03T13:36:17;100901.03;;;23.60;100.00
25430;BME280;13360;48.152;-1.788;2022-09-03T13:38:53;101020.03;;;23.73;100.00
25430;BME280;13360;48.152;-1.788;2022-09-03T13:52:37;100885.50;;;23.47;100.00
25430;BME280;13360;48.152;-1.788;2022-09-03T13:55:21;100897.16;;;23.46;100.00
25430;BME280;13360;48.152;-1.788;2022-09-03T13:58:02;100944.31;;;23.49;100.00
25430;BME280;13360;48.152;-1.788;2022-09-03T14:00:49;100897.63;;;23.51;100.00
25430;BME280;13360;48.152;-1.788;2022-09-03T14:03:29;100912.53;;;23.52;100.00
25430;BME280;13360;48.152;-1.788;2022-09-03T14:12:01;100981.00;;;23.52;100.00
25430;BME280;13360;48.152;-1.788;2022-09-03T14:17:25;100884.13;;;23.34;100.00
25430;BME280;13360;48.152;-1.788;2022-09-03T14:20:03;100931.22;;;23.33;100.00
25430;BME280;13360;48.152;-1.788;2022-09-03T14:25:17;100923.06;;;23.28;100.00
25430;BME280;13360;48.152;-1.788;2022-09-03T14:27:43;100998.47;;;23.35;100.00
25430;BME280;13360;48.152;-1.788;2022-09-03T14:35:56;100879.88;;;23.21;100.00
25430;BME280;13360;48.152;-1.788;2022-09-03T14:41:17;100899.31;;;23.29;100.00
25430;BME280;13360;48.152;-1.788;2022-09-03T14:49:17;100925.19;;;23.35;100.00
25430;BME280;13360;48.152;-1.788;2022-09-03T14:52:02;100923.50;;;23.30;100.00
25430;BME280;13360;48.152;-1.788;2022-09-03T14:57:34;100932.28;;;23.25;100.00
25430;BME280;13360;48.152;-1.788;2022-09-03T15:00:12;100845.63;;;23.19;100.00
25430;BME280;13360;48.152;-1.788;2022-09-03T15:06:23;100958.56;;;23.33;100.00
25430;BME280;13360;48.152;-1.788;2022-09-03T15:11:04;100899.59;;;23.21;100.00
25430;BME280;13360;48.152;-1.788;2022-09-03T15:13:43;100900.03;;;23.23;100.00
25430;BME280;13360;48.152;-1.788;2022-09-03T15:24:45;100821.25;;;23.03;100.00
25430;BME280;13360;48.152;-1.788;2022-09-03T15:27:42;100886.91;;;23.07;100.00
25430;BME280;13360;48.152;-1.788;2022-09-03T15:30:13;100885.72;;;23.08;100.00
25430;BME280;13360;48.152;-1.788;2022-09-03T15:38:00;100881.84;;;23.17;100.00
25430;BME280;13360;48.152;-1.788;2022-09-03T15:40:41;100888.66;;;23.16;100.00
25430;BME280;13360;48.152;-1.788;2022-09-03T15:43:33;100838.75;;;23.16;100.00
25430;BME280;13360;48.152;-1.788;2022-09-03T15:48:33;100872.06;;;23.10;100.00